MV Finola — OULQ2 — position and weather

sailwx.info

Track history (hours):
 
Tides and Currents Weather Stations Pressure Air Temp Water Temp Dewpoint Dewpoint Depression Visibility Wind Speed Wind Dir Waves Ship Positions

MV Finola

Last reported at 2014-Jul-19 12:33 UTC. Time now 2014-Jul-28 20:29 UTC.
Position S 11°41' E 131°33'.
Warning: this ship's position is 9 days out of date.

Length 86 m; draft 2.6 m.

Type: Cargo ship. MMSI: 219483000.

Date/timePositionNaut miles runAvg speedWind from/ knotsBaromVisibWave heightAir tempDewpointWater temp
2014-Jul-19 12:33S 11°41' E 131°33'1110.9
2014-Jul-19 11:32S 11°49' E 131°25'1010.7
2014-Jul-19 10:33S 11°57' E 131°18'1010.0
2014-Jul-19 09:33S 12°05' E 131°11'9 8.9
2014-Jul-19 08:31S 12°05' E 131°02'7 7.2
2014-Jul-19 07:33S 12°05' E 130°55'6 6.0
2014-Jul-19 06:33S 12°10' E 130°51'7 7.2
2014-Jul-19 05:33S 12°16' E 130°47'8 7.5
2014-Jul-19 04:33S 12°23' E 130°45'7 7.1
2014-Jul-19 03:32S 12°28' E 130°51'0 0.0
2014-Jul-19 02:32S 12°28' E 130°51'0 0.0
2014-Jul-19 01:32S 12°28' E 130°51'0 0.0
2014-Jul-19 00:32S 12°28' E 130°51'0 0.0
2014-Jul-18 23:32S 12°28' E 130°51'0 0.0
2014-Jul-18 22:23S 12°28' E 130°51'0 0.0
2014-Jul-18 21:23S 12°28' E 130°51'0 0.0
2014-Jul-18 20:26S 12°28' E 130°51'0 0.0
2014-Jul-18 19:26S 12°28' E 130°51'0 0.0
2014-Jul-18 18:26S 12°28' E 130°51'0 0.0
2014-Jul-18 17:26S 12°28' E 130°51'0 0.0
2014-Jul-18 16:26S 12°28' E 130°51'0 0.0
2014-Jul-18 15:29S 12°28' E 130°51'0 0.0
2014-Jul-18 14:29S 12°28' E 130°51'0 0.0
2014-Jul-18 13:29S 12°28' E 130°51'0 0.0
2014-Jul-18 12:29S 12°28' E 130°51'0 0.0
2014-Jul-18 11:32S 12°28' E 130°51'0 0.0
2014-Jul-18 10:32S 12°28' E 130°51'0 0.0
2014-Jul-18 09:32S 12°28' E 130°51'0 0.0
2014-Jul-18 08:32S 12°28' E 130°51'0 0.0
2014-Jul-18 07:32S 12°28' E 130°51'0 0.0
2014-Jul-18 06:32S 12°28' E 130°51'0 0.0
2014-Jul-18 05:32S 12°28' E 130°51'0 0.0
2014-Jul-18 04:32S 12°28' E 130°51'0 0.0
2014-Jul-18 03:32S 12°28' E 130°51'0 0.0
2014-Jul-18 02:31S 12°28' E 130°51'0 0.0
2014-Jul-18 01:31S 12°28' E 130°51'0 0.0
2014-Jul-18 00:31S 12°28' E 130°51'0 0.0
2014-Jul-17 23:22S 12°28' E 130°51'0 0.0
2014-Jul-17 22:22S 12°28' E 130°51'0 0.0
2014-Jul-17 21:25S 12°28' E 130°51'0 0.0
2014-Jul-17 20:25S 12°28' E 130°51'0 0.0
2014-Jul-17 19:25S 12°28' E 130°51'0 0.0
2014-Jul-17 18:25S 12°28' E 130°51'0 0.0
2014-Jul-17 17:25S 12°28' E 130°51'0 0.0
2014-Jul-17 16:28S 12°28' E 130°51'0 0.0
2014-Jul-17 15:28S 12°28' E 130°51'0 0.0
2014-Jul-17 14:28S 12°28' E 130°51'0 0.0
2014-Jul-17 13:28S 12°28' E 130°51'0 0.0
2014-Jul-17 12:28S 12°28' E 130°51'1 0.6
2014-Jul-17 11:33S 12°29' E 130°50'6 6.1
2014-Jul-17 10:33S 12°24' E 130°46'8 8.3
2014-Jul-17 09:33S 12°20' E 130°39'1111.0
2014-Jul-17 08:33S 12°16' E 130°28'1110.5
2014-Jul-17 07:33S 12°13' E 130°18'10 9.6
2014-Jul-17 06:31S 12°11' E 130°08'63 8.9
2014-Jul-16 23:25S 11°54' E 129°06'  
Track history (hours):
 
Tides and Currents Weather Stations Pressure Air Temp Water Temp Dewpoint Dewpoint Depression Visibility Wind Speed Wind Dir Waves Ship Positions

MV Finola

Last reported at 2014-Jul-19 12:33 UTC. Time now 2014-Jul-28 20:29 UTC.
Position S 11°41' E 131°33'.
Warning: this ship's position is 9 days out of date.

Length 86 m; draft 2.6 m.

Type: Cargo ship. MMSI: 219483000.

Date/timePositionNaut miles runAvg speedWind from/ knotsBaromVisibWave heightAir tempDewpointWater temp
2014-Jul-19 12:33S 11°41' E 131°33'1110.9
2014-Jul-19 11:32S 11°49' E 131°25'1010.7
2014-Jul-19 10:33S 11°57' E 131°18'1010.0
2014-Jul-19 09:33S 12°05' E 131°11'9 8.9
2014-Jul-19 08:31S 12°05' E 131°02'7 7.2
2014-Jul-19 07:33S 12°05' E 130°55'6 6.0
2014-Jul-19 06:33S 12°10' E 130°51'7 7.2
2014-Jul-19 05:33S 12°16' E 130°47'8 7.5
2014-Jul-19 04:33S 12°23' E 130°45'7 7.1
2014-Jul-19 03:32S 12°28' E 130°51'0 0.0
2014-Jul-19 02:32S 12°28' E 130°51'0 0.0
2014-Jul-19 01:32S 12°28' E 130°51'0 0.0
2014-Jul-19 00:32S 12°28' E 130°51'0 0.0
2014-Jul-18 23:32S 12°28' E 130°51'0 0.0
2014-Jul-18 22:23S 12°28' E 130°51'0 0.0
2014-Jul-18 21:23S 12°28' E 130°51'0 0.0
2014-Jul-18 20:26S 12°28' E 130°51'0 0.0
2014-Jul-18 19:26S 12°28' E 130°51'0 0.0
2014-Jul-18 18:26S 12°28' E 130°51'0 0.0
2014-Jul-18 17:26S 12°28' E 130°51'0 0.0
2014-Jul-18 16:26S 12°28' E 130°51'0 0.0
2014-Jul-18 15:29S 12°28' E 130°51'0 0.0
2014-Jul-18 14:29S 12°28' E 130°51'0 0.0
2014-Jul-18 13:29S 12°28' E 130°51'0 0.0
2014-Jul-18 12:29S 12°28' E 130°51'0 0.0
2014-Jul-18 11:32S 12°28' E 130°51'0 0.0
2014-Jul-18 10:32S 12°28' E 130°51'0 0.0
2014-Jul-18 09:32S 12°28' E 130°51'0 0.0
2014-Jul-18 08:32S 12°28' E 130°51'0 0.0
2014-Jul-18 07:32S 12°28' E 130°51'0 0.0
2014-Jul-18 06:32S 12°28' E 130°51'0 0.0
2014-Jul-18 05:32S 12°28' E 130°51'0 0.0
2014-Jul-18 04:32S 12°28' E 130°51'0 0.0
2014-Jul-18 03:32S 12°28' E 130°51'0 0.0
2014-Jul-18 02:31S 12°28' E 130°51'0 0.0
2014-Jul-18 01:31S 12°28' E 130°51'0 0.0
2014-Jul-18 00:31S 12°28' E 130°51'0 0.0
2014-Jul-17 23:22S 12°28' E 130°51'0 0.0
2014-Jul-17 22:22S 12°28' E 130°51'0 0.0
2014-Jul-17 21:25S 12°28' E 130°51'0 0.0
2014-Jul-17 20:25S 12°28' E 130°51'0 0.0
2014-Jul-17 19:25S 12°28' E 130°51'0 0.0
2014-Jul-17 18:25S 12°28' E 130°51'0 0.0
2014-Jul-17 17:25S 12°28' E 130°51'0 0.0
2014-Jul-17 16:28S 12°28' E 130°51'0 0.0
2014-Jul-17 15:28S 12°28' E 130°51'0 0.0
2014-Jul-17 14:28S 12°28' E 130°51'0 0.0
2014-Jul-17 13:28S 12°28' E 130°51'0 0.0
2014-Jul-17 12:28S 12°28' E 130°51'1 0.6
2014-Jul-17 11:33S 12°29' E 130°50'6 6.1
2014-Jul-17 10:33S 12°24' E 130°46'8 8.3
2014-Jul-17 09:33S 12°20' E 130°39'1111.0
2014-Jul-17 08:33S 12°16' E 130°28'1110.5
2014-Jul-17 07:33S 12°13' E 130°18'10 9.6
2014-Jul-17 06:31S 12°11' E 130°08'63 8.9
2014-Jul-16 23:25S 11°54' E 129°06'  

Dump ship's entire track history